createdAt,value
2018-09-03T00:00:40.288Z,1011.99
2018-09-03T00:01:40.278Z,1011.96
2018-09-03T00:02:40.267Z,1011.93
2018-09-03T00:03:40.258Z,1011.94
2018-09-03T00:04:40.249Z,1011.92
2018-09-03T00:05:40.234Z,1011.91
2018-09-03T00:06:40.225Z,1011.91
2018-09-03T00:07:40.214Z,1011.85
2018-09-03T00:08:40.207Z,1011.86
2018-09-03T00:09:40.192Z,1011.84
2018-09-03T00:10:40.188Z,1011.77
2018-09-03T00:11:40.171Z,1011.76
2018-09-03T00:12:40.162Z,1011.75
2018-09-03T00:13:40.151Z,1011.7
2018-09-03T00:14:40.141Z,1011.68
2018-09-03T00:15:40.130Z,1011.66
2018-09-03T00:16:40.119Z,1011.65
2018-09-03T00:17:40.108Z,1011.64
2018-09-03T00:18:40.097Z,1011.66
2018-09-03T00:19:40.087Z,1011.65
2018-09-03T00:20:40.078Z,1011.64
2018-09-03T00:21:40.066Z,1011.62
2018-09-03T00:22:40.053Z,1011.65
2018-09-03T00:23:40.046Z,1011.63
2018-09-03T00:24:40.034Z,1011.6
2018-09-03T00:25:40.023Z,1011.6
2018-09-03T00:26:40.018Z,1011.63
2018-09-03T00:27:40.001Z,1011.57
2018-09-03T00:28:39.992Z,1011.56
2018-09-03T00:29:39.981Z,1011.59
2018-09-03T00:30:39.972Z,1011.56
2018-09-03T00:31:39.961Z,1011.53
2018-09-03T00:32:39.949Z,1011.51
2018-09-03T00:33:39.938Z,1011.52
2018-09-03T00:34:39.927Z,1011.52
2018-09-03T00:35:39.917Z,1011.48
2018-09-03T00:36:39.909Z,1011.5
2018-09-03T00:37:39.897Z,1011.46
2018-09-03T00:38:39.888Z,1011.43
2018-09-03T00:39:39.874Z,1011.42
2018-09-03T00:40:39.869Z,1011.43
2018-09-03T00:41:39.855Z,1011.39
2018-09-03T00:42:39.842Z,1011.39
2018-09-03T00:43:39.837Z,1011.34
2018-09-03T00:44:39.821Z,1011.36
2018-09-03T00:45:39.811Z,1011.33
2018-09-03T00:46:39.807Z,1011.33
2018-09-03T00:47:39.799Z,1011.37
2018-09-03T00:48:39.778Z,1011.39
2018-09-03T00:49:39.771Z,1011.34
2018-09-03T00:50:39.762Z,1011.37
2018-09-03T00:51:39.748Z,1011.38
2018-09-03T00:52:39.747Z,1011.35
2018-09-03T00:53:39.729Z,1011.34
2018-09-03T00:54:39.716Z,1011.33
2018-09-03T00:55:39.707Z,1011.29
2018-09-03T00:56:39.695Z,1011.27
2018-09-03T00:57:39.688Z,1011.27
2018-09-03T00:58:39.673Z,1011.23
2018-09-03T00:59:39.661Z,1011.26
2018-09-03T01:00:39.652Z,1011.24
2018-09-03T01:01:39.642Z,1011.24
2018-09-03T01:02:39.633Z,1011.25
2018-09-03T01:03:39.624Z,1011.23
2018-09-03T01:04:39.612Z,1011.22
2018-09-03T01:05:39.605Z,1011.2
2018-09-03T01:06:39.588Z,1011.22
2018-09-03T01:07:39.579Z,1011.18
2018-09-03T01:08:39.569Z,1011.13
2018-09-03T01:09:39.562Z,1011.14
2018-09-03T01:10:39.547Z,1011.14
2018-09-03T01:11:39.543Z,1011.15
2018-09-03T01:12:39.526Z,1011.17
2018-09-03T01:13:39.514Z,1011.15
2018-09-03T01:14:39.504Z,1011.17
2018-09-03T01:15:39.493Z,1011.12
2018-09-03T01:16:39.493Z,1011.14
2018-09-03T01:17:39.475Z,1011.12
2018-09-03T01:18:39.461Z,1011.09
2018-09-03T01:19:39.452Z,1011.09
2018-09-03T01:20:39.448Z,1011.08
2018-09-03T01:21:39.439Z,1011.1
2018-09-03T01:22:39.418Z,1011.08
2018-09-03T01:23:39.408Z,1011.08
2018-09-03T01:24:39.400Z,1011.09
2018-09-03T01:25:39.392Z,1011.09
2018-09-03T01:26:39.374Z,1011.07
2018-09-03T01:27:39.366Z,1011.06
2018-09-03T01:28:39.351Z,1011.02
2018-09-03T01:29:39.455Z,1011.08
2018-09-03T01:30:39.336Z,1011.06
2018-09-03T01:31:39.321Z,1011.09
2018-09-03T01:32:39.313Z,1011.1
2018-09-03T01:33:39.299Z,1011.05
2018-09-03T01:34:39.287Z,1011.11
2018-09-03T01:35:39.280Z,1011.09
2018-09-03T01:36:39.267Z,1011.11
2018-09-03T01:37:39.256Z,1011.15
2018-09-03T01:38:39.250Z,1011.21
2018-09-03T01:39:39.237Z,1011.2
2018-09-03T01:40:39.225Z,1011.18
2018-09-03T01:41:39.213Z,1011.19
2018-09-03T01:42:39.202Z,1011.19
2018-09-03T01:43:39.191Z,1011.21
2018-09-03T01:44:39.180Z,1011.2
2018-09-03T01:45:39.170Z,1011.2
2018-09-03T01:46:39.158Z,1011.13
2018-09-03T01:47:39.152Z,1011.12
2018-09-03T01:48:39.140Z,1011.15
2018-09-03T01:49:39.126Z,1011.19
2018-09-03T01:50:39.117Z,1011.19
2018-09-03T01:51:39.106Z,1011.2
2018-09-03T01:52:39.106Z,1011.21
2018-09-03T01:53:39.083Z,1011.18
2018-09-03T01:54:39.071Z,1011.17
2018-09-03T01:55:39.062Z,1011.16
2018-09-03T01:56:39.053Z,1011.14
2018-09-03T01:57:39.039Z,1011.1
2018-09-03T01:58:39.032Z,1011.05
2018-09-03T01:59:39.022Z,1011.07
2018-09-03T02:00:39.008Z,1011
2018-09-03T02:01:38.996Z,1011.05
2018-09-03T02:02:38.994Z,1010.96
2018-09-03T02:03:38.976Z,1010.99
2018-09-03T02:04:38.964Z,1010.95
2018-09-03T02:05:38.954Z,1010.94
2018-09-03T02:06:38.940Z,1010.88
2018-09-03T02:07:38.933Z,1010.91
2018-09-03T02:08:38.923Z,1010.94
2018-09-03T02:09:38.915Z,1010.96
2018-09-03T02:10:38.899Z,1010.98
2018-09-03T02:11:38.891Z,1011
2018-09-03T02:12:38.881Z,1011
2018-09-03T02:13:38.866Z,1011.02
2018-09-03T02:14:38.856Z,1011.01
2018-09-03T02:15:38.847Z,1010.99
2018-09-03T02:16:38.834Z,1011.02
2018-09-03T02:17:38.824Z,1011
2018-09-03T02:18:38.812Z,1010.96
2018-09-03T02:19:38.803Z,1010.98
2018-09-03T02:20:38.790Z,1011.03
2018-09-03T02:21:38.780Z,1011.07
2018-09-03T02:22:38.771Z,1011.11
2018-09-03T02:23:38.757Z,1011.12
2018-09-03T02:24:38.750Z,1011.18
2018-09-03T02:25:38.737Z,1011.19
2018-09-03T02:26:38.733Z,1011.23
2018-09-03T02:27:38.715Z,1011.26
2018-09-03T02:28:38.710Z,1011.3
2018-09-03T02:29:38.694Z,1011.34
2018-09-03T02:30:38.687Z,1011.38
2018-09-03T02:31:38.674Z,1011.37
2018-09-03T02:32:38.664Z,1011.39
2018-09-03T02:33:38.702Z,1011.4
2018-09-03T02:34:38.638Z,1011.41
2018-09-03T02:35:38.628Z,1011.43
2018-09-03T02:36:38.618Z,1011.41
2018-09-03T02:37:38.607Z,1011.42
2018-09-03T02:38:38.595Z,1011.38
2018-09-03T02:39:38.593Z,1011.4
2018-09-03T02:40:38.578Z,1011.44
2018-09-03T02:41:38.561Z,1011.42
2018-09-03T02:42:38.552Z,1011.42
2018-09-03T02:43:38.549Z,1011.43
2018-09-03T02:44:38.534Z,1011.44
2018-09-03T02:45:38.522Z,1011.41
2018-09-03T02:46:38.509Z,1011.31
2018-09-03T02:47:38.504Z,1011.27
2018-09-03T02:48:38.541Z,1011.29
2018-09-03T02:49:38.475Z,1011.24
2018-09-03T02:50:38.467Z,1011.16
2018-09-03T02:51:38.458Z,1011.13
2018-09-03T02:52:38.443Z,1011.1
2018-09-03T02:53:38.433Z,1011.03
2018-09-03T02:54:38.425Z,1011.05
2018-09-03T02:55:38.410Z,1011
2018-09-03T02:56:38.400Z,1011
2018-09-03T02:57:38.390Z,1010.94
2018-09-03T02:58:38.379Z,1010.95
2018-09-03T02:59:38.369Z,1010.92
2018-09-03T03:00:38.358Z,1010.94
2018-09-03T03:01:38.347Z,1010.91
2018-09-03T03:02:38.336Z,1010.86
2018-09-03T03:03:38.376Z,1010.87
2018-09-03T03:04:38.314Z,1010.93
2018-09-03T03:05:38.305Z,1010.94
2018-09-03T03:06:38.291Z,1010.92
2018-09-03T03:07:38.284Z,1010.96
2018-09-03T03:08:38.273Z,1011.03
2018-09-03T03:09:38.261Z,1011.03
2018-09-03T03:10:38.253Z,1011
2018-09-03T03:11:38.277Z,1010.98
2018-09-03T03:12:38.236Z,1010.94
2018-09-03T03:13:38.222Z,1010.89
2018-09-03T03:14:38.208Z,1010.88
2018-09-03T03:15:38.200Z,1010.85
2018-09-03T03:16:38.395Z,1010.86
2018-09-03T03:17:38.179Z,1010.84
2018-09-03T03:18:38.169Z,1010.77
2018-09-03T03:19:38.155Z,1010.81
2018-09-03T03:20:38.148Z,1010.83
2018-09-03T03:21:38.138Z,1010.83
2018-09-03T03:22:38.127Z,1010.81
2018-09-03T03:23:38.111Z,1010.79
2018-09-03T03:24:38.104Z,1010.75
2018-09-03T03:25:38.098Z,1010.73
2018-09-03T03:26:38.079Z,1010.72
2018-09-03T03:27:38.081Z,1010.7
2018-09-03T03:28:38.057Z,1010.7
2018-09-03T03:29:38.048Z,1010.71
2018-09-03T03:30:38.039Z,1010.71
2018-09-03T03:31:38.032Z,1010.68
2018-09-03T03:32:38.016Z,1010.69
2018-09-03T03:33:38.005Z,1010.64
2018-09-03T03:34:37.998Z,1010.61
2018-09-03T03:35:37.985Z,1010.58
2018-09-03T03:36:37.979Z,1010.54
2018-09-03T03:37:37.963Z,1010.57
2018-09-03T03:38:37.953Z,1010.6
2018-09-03T03:39:37.947Z,1010.56
2018-09-03T03:40:37.933Z,1010.56
2018-09-03T03:41:37.946Z,1010.55
2018-09-03T03:42:37.907Z,1010.54
2018-09-03T03:43:37.897Z,1010.56
2018-09-03T03:44:37.892Z,1010.54
2018-09-03T03:45:37.875Z,1010.53
2018-09-03T03:46:37.867Z,1010.52
2018-09-03T03:47:37.851Z,1010.55
2018-09-03T03:48:37.846Z,1010.55
2018-09-03T03:49:37.840Z,1010.58
2018-09-03T03:50:37.828Z,1010.52
2018-09-03T03:51:37.810Z,1010.47
2018-09-03T03:52:37.802Z,1010.43
2018-09-03T03:53:37.790Z,1010.43
2018-09-03T03:54:37.779Z,1010.45
2018-09-03T03:55:37.770Z,1010.42
2018-09-03T03:56:37.756Z,1010.41
2018-09-03T03:57:37.753Z,1010.33
2018-09-03T03:58:37.741Z,1010.32
2018-09-03T03:59:37.724Z,1010.3
2018-09-03T04:00:37.713Z,1010.3
2018-09-03T04:01:37.703Z,1010.31
2018-09-03T04:02:37.691Z,1010.32
2018-09-03T04:03:37.679Z,1010.35
2018-09-03T04:04:37.671Z,1010.39
2018-09-03T04:05:37.661Z,1010.41
2018-09-03T04:06:37.647Z,1010.39
2018-09-03T04:07:37.636Z,1010.41
2018-09-03T04:08:37.631Z,1010.36
2018-09-03T04:09:37.614Z,1010.36
2018-09-03T04:10:37.606Z,1010.34
2018-09-03T04:11:37.597Z,1010.32
2018-09-03T04:12:37.584Z,1010.29
2018-09-03T04:13:37.571Z,1010.28
2018-09-03T04:14:37.561Z,1010.28
2018-09-03T04:15:37.557Z,1010.24
2018-09-03T04:16:37.540Z,1010.25
2018-09-03T04:17:37.529Z,1010.22
2018-09-03T04:18:37.520Z,1010.21
2018-09-03T04:19:37.509Z,1010.16
2018-09-03T04:20:37.500Z,1010.11
2018-09-03T04:21:37.483Z,1010.11
2018-09-03T04:22:37.475Z,1010.18
2018-09-03T04:23:37.467Z,1010.21
2018-09-03T04:24:37.456Z,1010.21
2018-09-03T04:25:37.448Z,1010.24
2018-09-03T04:26:37.430Z,1010.23
2018-09-03T04:27:37.418Z,1010.26
2018-09-03T04:28:37.432Z,1010.27
2018-09-03T04:29:37.396Z,1010.26
2018-09-03T04:30:37.384Z,1010.28
2018-09-03T04:31:37.375Z,1010.26
2018-09-03T04:32:37.367Z,1010.27
2018-09-03T04:33:37.351Z,1010.27
2018-09-03T04:34:37.344Z,1010.27
2018-09-03T04:35:37.329Z,1010.27
2018-09-03T04:36:37.322Z,1010.23
2018-09-03T04:37:37.307Z,1010.25
2018-09-03T04:38:37.340Z,1010.27
2018-09-03T04:39:37.285Z,1010.25
2018-09-03T04:40:37.274Z,1010.29
2018-09-03T04:41:37.265Z,1010.25
2018-09-03T04:42:37.250Z,1010.22
2018-09-03T04:43:37.238Z,1010.25
2018-09-03T04:44:37.231Z,1010.22
2018-09-03T04:45:37.217Z,1010.2
2018-09-03T04:46:37.208Z,1010.21
2018-09-03T04:47:37.202Z,1010.21
2018-09-03T04:48:37.188Z,1010.2
2018-09-03T04:49:37.174Z,1010.2
2018-09-03T04:50:37.166Z,1010.18
2018-09-03T04:51:37.156Z,1010.18
2018-09-03T04:52:37.142Z,1010.18
2018-09-03T04:53:37.131Z,1010.21
2018-09-03T04:54:37.207Z,1010.26
2018-09-03T04:55:37.111Z,1010.21
2018-09-03T04:56:37.097Z,1010.24
2018-09-03T04:57:37.084Z,1010.2
2018-09-03T04:58:37.073Z,1010.17
2018-09-03T04:59:37.065Z,1010.17
2018-09-03T05:00:37.051Z,1010.15
2018-09-03T05:01:37.083Z,1010.12
2018-09-03T05:02:37.032Z,1010.15
2018-09-03T05:03:37.021Z,1010.14
2018-09-03T05:04:37.008Z,1010.09
2018-09-03T05:05:37.000Z,1010.14
2018-09-03T05:06:37.029Z,1010.12
2018-09-03T05:07:36.975Z,1010.09
2018-09-03T05:08:36.961Z,1010.11
2018-09-03T05:09:36.951Z,1010.1
2018-09-03T05:10:36.949Z,1010.07
2018-09-03T05:11:36.935Z,1010.08
2018-09-03T05:12:36.923Z,1010.15
2018-09-03T05:13:36.908Z,1010.14
2018-09-03T05:14:36.900Z,1010.14
2018-09-03T05:15:36.885Z,1010.15
2018-09-03T05:16:37.076Z,1010.2
2018-09-03T05:17:36.864Z,1010.22
2018-09-03T05:18:36.858Z,1010.22
2018-09-03T05:19:36.845Z,1010.23
2018-09-03T05:20:36.834Z,1010.23
2018-09-03T05:21:36.820Z,1010.22
2018-09-03T05:22:36.805Z,1010.19
2018-09-03T05:23:36.796Z,1010.16
2018-09-03T05:24:36.786Z,1010.2
2018-09-03T05:25:36.776Z,1010.17
2018-09-03T05:26:36.766Z,1010.19
2018-09-03T05:27:36.752Z,1010.17
2018-09-03T05:28:36.742Z,1010.18
2018-09-03T05:29:36.731Z,1010.22
2018-09-03T05:30:36.721Z,1010.23
2018-09-03T05:31:36.710Z,1010.22
2018-09-03T05:32:36.698Z,1010.22
2018-09-03T05:33:36.687Z,1010.18
2018-09-03T05:34:36.676Z,1010.18
2018-09-03T05:35:36.664Z,1010.17
2018-09-03T05:36:36.658Z,1010.13
2018-09-03T05:37:36.642Z,1010.13
2018-09-03T05:38:36.630Z,1010.16
2018-09-03T05:39:36.631Z,1010.12
2018-09-03T05:40:36.610Z,1010.1
2018-09-03T05:41:36.600Z,1010.09
2018-09-03T05:42:36.591Z,1010.08
2018-09-03T05:43:36.862Z,1010.13
2018-09-03T05:44:36.569Z,1010.13
2018-09-03T05:45:36.555Z,1010.19
2018-09-03T05:46:36.548Z,1010.22
2018-09-03T05:47:36.533Z,1010.25
2018-09-03T05:48:36.550Z,1010.2
2018-09-03T05:49:36.511Z,1010.19
2018-09-03T05:50:36.530Z,1010.19
2018-09-03T05:51:36.489Z,1010.19
2018-09-03T05:52:36.477Z,1010.18
2018-09-03T05:53:36.468Z,1010.19
2018-09-03T05:54:36.457Z,1010.19
2018-09-03T05:55:36.447Z,1010.17
2018-09-03T05:56:36.433Z,1010.2
2018-09-03T05:57:36.424Z,1010.13
2018-09-03T05:58:36.413Z,1010.19
2018-09-03T05:59:36.404Z,1010.19
2018-09-03T06:00:36.392Z,1010.23
2018-09-03T06:01:36.383Z,1010.23
2018-09-03T06:02:36.372Z,1010.25
2018-09-03T06:03:36.359Z,1010.31
2018-09-03T06:04:36.348Z,1010.28
2018-09-03T06:05:36.338Z,1010.27
2018-09-03T06:06:36.326Z,1010.27
2018-09-03T06:07:36.315Z,1010.27
2018-09-03T06:08:36.304Z,1010.28
2018-09-03T06:09:36.296Z,1010.27
2018-09-03T06:10:36.347Z,1010.27
2018-09-03T06:11:36.272Z,1010.26
2018-09-03T06:12:36.262Z,1010.28
2018-09-03T06:13:36.248Z,1010.32
2018-09-03T06:14:36.240Z,1010.33
2018-09-03T06:15:36.228Z,1010.4
2018-09-03T06:16:36.218Z,1010.39
2018-09-03T06:17:36.211Z,1010.35
2018-09-03T06:18:36.199Z,1010.34
2018-09-03T06:19:36.188Z,1010.34
2018-09-03T06:20:36.175Z,1010.31
2018-09-03T06:21:36.165Z,1010.29
2018-09-03T06:22:36.156Z,1010.28
2018-09-03T06:23:36.143Z,1010.26
2018-09-03T06:24:36.135Z,1010.27
2018-09-03T06:25:36.124Z,1010.29
2018-09-03T06:26:36.147Z,1010.29
2018-09-03T06:27:36.102Z,1010.29
2018-09-03T06:28:36.091Z,1010.29
2018-09-03T06:29:36.080Z,1010.31
2018-09-03T06:30:36.070Z,1010.23
2018-09-03T06:31:36.061Z,1010.2
2018-09-03T06:32:36.052Z,1010.16
2018-09-03T06:33:36.039Z,1010.11
2018-09-03T06:34:36.028Z,1010.06
2018-09-03T06:35:36.014Z,1010.07
2018-09-03T06:36:36.004Z,1010.07
2018-09-03T06:37:35.995Z,1010.05
2018-09-03T06:38:35.983Z,1010.03
2018-09-03T06:39:35.972Z,1010.04
2018-09-03T06:40:35.966Z,1010.06
2018-09-03T06:41:35.956Z,1010.05
2018-09-03T06:42:35.942Z,1010.03
2018-09-03T06:43:35.932Z,1010.05
2018-09-03T06:44:35.921Z,1010.03
2018-09-03T06:45:35.912Z,1010.02
2018-09-03T06:46:35.902Z,1010.1
2018-09-03T06:47:35.890Z,1010.04
2018-09-03T06:48:35.880Z,1010.06
2018-09-03T06:49:35.881Z,1010.06
2018-09-03T06:50:35.859Z,1010.05
2018-09-03T06:51:35.850Z,1010.03
2018-09-03T06:52:35.872Z,1010.03
2018-09-03T06:53:35.886Z,1010.02
2018-09-03T06:54:35.818Z,1010.06
2018-09-03T06:55:35.809Z,1010.1
2018-09-03T06:56:35.798Z,1010.06
2018-09-03T06:57:35.794Z,1010.09
2018-09-03T06:58:35.787Z,1010.1
2018-09-03T06:59:35.796Z,1010.17
2018-09-03T07:00:35.764Z,1010.15
2018-09-03T07:01:35.752Z,1010.17
2018-09-03T07:02:35.743Z,1010.25
2018-09-03T07:03:35.728Z,1010.21
2018-09-03T07:04:35.717Z,1010.24
2018-09-03T07:05:35.709Z,1010.29
2018-09-03T07:06:35.700Z,1010.24
2018-09-03T07:07:35.688Z,1010.21
2018-09-03T07:08:35.678Z,1010.24
2018-09-03T07:09:35.668Z,1010.26
2018-09-03T07:10:35.656Z,1010.3
2018-09-03T07:11:35.649Z,1010.31
2018-09-03T07:12:35.637Z,1010.31
2018-09-03T07:13:35.626Z,1010.38
2018-09-03T07:14:35.619Z,1010.36
2018-09-03T07:15:35.605Z,1010.39
2018-09-03T07:16:35.800Z,1010.4
2018-09-03T07:17:35.587Z,1010.35
2018-09-03T07:18:35.580Z,1010.39
2018-09-03T07:19:35.568Z,1010.38
2018-09-03T07:20:35.557Z,1010.36
2018-09-03T07:21:35.547Z,1010.38
2018-09-03T07:22:35.550Z,1010.38
2018-09-03T07:23:35.528Z,1010.41
2018-09-03T07:24:35.519Z,1010.38
2018-09-03T07:25:35.509Z,1010.34
2018-09-03T07:26:35.499Z,1010.3
2018-09-03T07:27:35.487Z,1010.23
2018-09-03T07:28:35.476Z,1010.25
2018-09-03T07:29:35.471Z,1010.15
2018-09-03T07:30:35.468Z,1010.18
2018-09-03T07:31:35.451Z,1010.22
2018-09-03T07:32:35.436Z,1010.17
2018-09-03T07:33:35.427Z,1010.14
2018-09-03T07:34:35.419Z,1010.1
2018-09-03T07:35:35.462Z,1010.03
2018-09-03T07:36:35.398Z,1009.95
2018-09-03T07:37:35.386Z,1009.96
2018-09-03T07:38:35.375Z,1010
2018-09-03T07:39:35.366Z,1010.03
2018-09-03T07:40:35.356Z,1010.03
2018-09-03T07:41:35.347Z,1010.16
2018-09-03T07:42:35.340Z,1010.1
2018-09-03T07:43:35.333Z,1010.09
2018-09-03T07:44:35.318Z,1010.06
2018-09-03T07:45:35.307Z,1010.07
2018-09-03T07:46:35.301Z,1010.1
2018-09-03T07:47:35.292Z,1010.11
2018-09-03T07:48:35.279Z,1010.1
2018-09-03T07:49:35.272Z,1010.09
2018-09-03T07:50:35.258Z,1010.08
2018-09-03T07:51:35.248Z,1010.04
2018-09-03T07:52:35.236Z,1010
2018-09-03T07:53:35.227Z,1009.99
2018-09-03T07:54:35.225Z,1009.97
2018-09-03T07:55:35.209Z,1009.98
2018-09-03T07:56:35.202Z,1010
2018-09-03T07:57:35.191Z,1009.97
2018-09-03T07:58:35.180Z,1010.04
2018-09-03T07:59:35.171Z,1010.01
2018-09-03T08:00:35.163Z,1010.04
2018-09-03T08:01:35.156Z,1010.05
2018-09-03T08:02:35.141Z,1010.05
2018-09-03T08:03:35.133Z,1010.08
2018-09-03T08:04:35.124Z,1010.07
2018-09-03T08:05:35.114Z,1010.07
2018-09-03T08:06:35.102Z,1010.06
2018-09-03T08:07:35.132Z,1010.06
2018-09-03T08:08:35.085Z,1010.08
2018-09-03T08:09:35.077Z,1010.05
2018-09-03T08:10:35.068Z,1010.05
2018-09-03T08:11:35.057Z,1010.04
2018-09-03T08:12:35.047Z,1010.01
2018-09-03T08:13:35.044Z,1009.99
2018-09-03T08:14:35.032Z,1009.95
2018-09-03T08:15:35.019Z,1009.94
2018-09-03T08:16:35.010Z,1009.91
2018-09-03T08:17:35.003Z,1009.92
2018-09-03T08:18:34.989Z,1009.91
2018-09-03T08:19:34.981Z,1009.93
2018-09-03T08:20:34.971Z,1009.9
2018-09-03T08:21:34.960Z,1009.91
2018-09-03T08:22:34.953Z,1009.9
2018-09-03T08:23:34.943Z,1009.85
2018-09-03T08:24:34.934Z,1009.87
2018-09-03T08:25:34.922Z,1009.86
2018-09-03T08:26:34.918Z,1009.86
2018-09-03T08:27:34.906Z,1009.86
2018-09-03T08:28:34.897Z,1009.87
2018-09-03T08:29:34.885Z,1009.87
2018-09-03T08:30:34.877Z,1009.88
2018-09-03T08:31:34.872Z,1009.9
2018-09-03T08:32:34.856Z,1009.92
2018-09-03T08:33:34.861Z,1009.94
2018-09-03T08:34:34.844Z,1009.94
2018-09-03T08:35:34.858Z,1009.95
2018-09-03T08:36:34.821Z,1009.95
2018-09-03T08:37:34.816Z,1009.92
2018-09-03T08:38:34.805Z,1009.95
2018-09-03T08:39:34.795Z,1009.9
2018-09-03T08:40:34.784Z,1009.94
2018-09-03T08:41:34.778Z,1009.89
2018-09-03T08:42:34.766Z,1009.91
2018-09-03T08:43:34.756Z,1009.92
2018-09-03T08:44:34.748Z,1009.9
2018-09-03T08:45:34.740Z,1009.93
2018-09-03T08:46:34.728Z,1009.91
2018-09-03T08:47:34.721Z,1009.86
2018-09-03T08:48:34.711Z,1009.89
2018-09-03T08:49:34.702Z,1009.87
2018-09-03T08:50:34.704Z,1009.86
2018-09-03T08:51:34.683Z,1009.85
2018-09-03T08:52:34.677Z,1009.84
2018-09-03T08:53:34.667Z,1009.81
2018-09-03T08:54:34.658Z,1009.79
2018-09-03T08:55:34.650Z,1009.77
2018-09-03T08:56:34.638Z,1009.77
2018-09-03T08:57:34.632Z,1009.76
2018-09-03T08:58:34.618Z,1009.78
2018-09-03T08:59:34.610Z,1009.77
2018-09-03T09:00:34.604Z,1009.75
2018-09-03T09:01:34.595Z,1009.77
2018-09-03T09:02:34.588Z,1009.75
2018-09-03T09:03:34.573Z,1009.76
2018-09-03T09:04:34.565Z,1009.76
2018-09-03T09:05:34.560Z,1009.77
2018-09-03T09:06:34.548Z,1009.84
2018-09-03T09:07:34.541Z,1009.87
2018-09-03T09:08:34.531Z,1009.96
2018-09-03T09:09:34.525Z,1009.93
2018-09-03T09:10:34.514Z,1009.95
2018-09-03T09:11:34.527Z,1009.94
2018-09-03T09:12:34.494Z,1009.92
2018-09-03T09:13:34.488Z,1009.86
2018-09-03T09:14:34.479Z,1009.86
2018-09-03T09:15:34.476Z,1009.86
2018-09-03T09:16:34.663Z,1009.91
2018-09-03T09:17:34.505Z,1009.9
2018-09-03T09:18:34.444Z,1009.94
2018-09-03T09:19:34.437Z,1009.97
2018-09-03T09:20:34.432Z,1009.96
2018-09-03T09:21:34.421Z,1009.92
2018-09-03T09:22:34.415Z,1009.9
2018-09-03T09:23:34.402Z,1009.84
2018-09-03T09:24:34.436Z,1009.81
2018-09-03T09:25:34.386Z,1009.79
2018-09-03T09:26:34.380Z,1009.78
2018-09-03T09:27:34.370Z,1009.79
2018-09-03T09:28:34.362Z,1009.79
2018-09-03T09:29:34.356Z,1009.82
2018-09-03T09:30:34.346Z,1009.81
2018-09-03T09:31:34.340Z,1009.81
2018-09-03T09:32:34.331Z,1009.81
2018-09-03T09:33:34.355Z,1009.85
2018-09-03T09:34:34.316Z,1009.79
2018-09-03T09:35:34.307Z,1009.8
2018-09-03T09:36:34.300Z,1009.75
2018-09-03T09:37:34.297Z,1009.74
2018-09-03T09:38:34.286Z,1009.75
2018-09-03T09:39:34.278Z,1009.74
2018-09-03T09:40:34.271Z,1009.73
2018-09-03T09:41:34.269Z,1009.73
2018-09-03T09:42:34.255Z,1009.75
2018-09-03T09:43:34.249Z,1009.76
2018-09-03T09:44:34.240Z,1009.8
2018-09-03T09:45:34.233Z,1009.82
2018-09-03T09:46:34.226Z,1009.86
2018-09-03T09:47:34.218Z,1009.83
2018-09-03T09:48:34.213Z,1009.85
2018-09-03T09:49:34.203Z,1009.85
2018-09-03T09:50:34.202Z,1009.85
2018-09-03T09:51:34.196Z,1009.83
2018-09-03T09:52:34.180Z,1009.84
2018-09-03T09:53:34.173Z,1009.85
2018-09-03T09:54:34.165Z,1009.79
2018-09-03T09:55:34.167Z,1009.8
2018-09-03T09:56:34.225Z,1009.74
2018-09-03T09:57:34.144Z,1009.7
2018-09-03T09:58:34.140Z,1009.72
2018-09-03T09:59:34.132Z,1009.67
2018-09-03T10:00:34.128Z,1009.72
2018-09-03T10:01:34.117Z,1009.69
2018-09-03T10:02:34.112Z,1009.71
2018-09-03T10:03:34.108Z,1009.71
2018-09-03T10:04:34.096Z,1009.71
2018-09-03T10:05:34.091Z,1009.7
2018-09-03T10:06:34.134Z,1009.66
2018-09-03T10:07:34.080Z,1009.7
2018-09-03T10:08:34.074Z,1009.62
2018-09-03T10:09:34.068Z,1009.61
2018-09-03T10:10:34.058Z,1009.61
2018-09-03T10:11:34.056Z,1009.58
2018-09-03T10:12:34.043Z,1009.58
2018-09-03T10:13:34.038Z,1009.56
2018-09-03T10:14:34.034Z,1009.6
2018-09-03T10:15:34.025Z,1009.59
2018-09-03T10:16:34.019Z,1009.62
2018-09-03T10:17:34.014Z,1009.63
2018-09-03T10:18:34.009Z,1009.63
2018-09-03T10:19:33.998Z,1009.63
2018-09-03T10:20:33.994Z,1009.64
2018-09-03T10:21:33.987Z,1009.65
2018-09-03T10:22:33.981Z,1009.66
2018-09-03T10:23:33.979Z,1009.62
2018-09-03T10:24:33.968Z,1009.61
2018-09-03T10:25:33.963Z,1009.66
2018-09-03T10:26:33.958Z,1009.65
2018-09-03T10:27:33.949Z,1009.67
2018-09-03T10:28:33.944Z,1009.7
2018-09-03T10:29:33.936Z,1009.65
2018-09-03T10:30:33.930Z,1009.61
2018-09-03T10:31:33.924Z,1009.64
2018-09-03T10:32:33.919Z,1009.57
2018-09-03T10:33:33.913Z,1009.61
2018-09-03T10:34:33.904Z,1009.56
2018-09-03T10:35:33.900Z,1009.57
2018-09-03T10:36:33.892Z,1009.58
2018-09-03T10:37:33.888Z,1009.57
2018-09-03T10:38:33.881Z,1009.59
2018-09-03T10:39:33.886Z,1009.56
2018-09-03T10:40:33.867Z,1009.52
2018-09-03T10:41:33.863Z,1009.5
2018-09-03T10:42:33.859Z,1009.5
2018-09-03T10:43:33.852Z,1009.51
2018-09-03T10:44:33.850Z,1009.51
2018-09-03T10:45:33.841Z,1009.48
2018-09-03T10:46:33.835Z,1009.48
2018-09-03T10:47:33.903Z,1009.41
2018-09-03T10:48:33.821Z,1009.44
2018-09-03T10:49:33.866Z,1009.45
2018-09-03T10:50:33.811Z,1009.46
2018-09-03T10:51:33.804Z,1009.45
2018-09-03T10:52:33.797Z,1009.44
2018-09-03T10:53:33.796Z,1009.45
2018-09-03T10:54:33.787Z,1009.45
2018-09-03T10:55:33.780Z,1009.44
2018-09-03T10:56:33.775Z,1009.41
2018-09-03T10:57:33.770Z,1009.47
2018-09-03T10:58:33.765Z,1009.43
2018-09-03T10:59:33.760Z,1009.45
2018-09-03T11:00:33.755Z,1009.42
2018-09-03T11:01:33.748Z,1009.43
2018-09-03T11:02:33.807Z,1009.43
2018-09-03T11:03:33.735Z,1009.41
2018-09-03T11:04:33.729Z,1009.39
2018-09-03T11:05:33.737Z,1009.39
2018-09-03T11:06:33.719Z,1009.34
2018-09-03T11:07:33.715Z,1009.33
2018-09-03T11:08:33.709Z,1009.32
2018-09-03T11:09:33.700Z,1009.29
2018-09-03T11:10:33.694Z,1009.3
2018-09-03T11:11:33.692Z,1009.29
2018-09-03T11:12:33.689Z,1009.27
2018-09-03T11:13:33.730Z,1009.27
2018-09-03T11:14:33.676Z,1009.25
2018-09-03T11:15:33.669Z,1009.28
2018-09-03T11:16:33.861Z,1009.24
2018-09-03T11:17:33.655Z,1009.25
2018-09-03T11:18:33.651Z,1009.24
2018-09-03T11:19:33.644Z,1009.23
2018-09-03T11:20:33.637Z,1009.2
2018-09-03T11:21:33.915Z,1009.25
2018-09-03T11:22:33.686Z,1009.23
2018-09-03T11:23:33.620Z,1009.22
2018-09-03T11:24:33.616Z,1009.18
2018-09-03T11:25:33.656Z,1009.16
2018-09-03T11:26:33.600Z,1009.21
2018-09-03T11:27:33.597Z,1009.19
2018-09-03T11:28:33.597Z,1009.18
2018-09-03T11:29:33.645Z,1009.19
2018-09-03T11:30:33.621Z,1009.18
2018-09-03T11:31:33.579Z,1009.21
2018-09-03T11:32:33.565Z,1009.2
2018-09-03T11:33:33.565Z,1009.15
2018-09-03T11:34:33.583Z,1009.16
2018-09-03T11:35:33.555Z,1009.11
2018-09-03T11:36:33.542Z,1009.14
2018-09-03T11:37:33.534Z,1009.15
2018-09-03T11:38:33.525Z,1009.13
2018-09-03T11:39:33.521Z,1009.06
2018-09-03T11:40:33.513Z,1009.06
2018-09-03T11:41:33.508Z,1009.02
2018-09-03T11:42:33.501Z,1009.05
2018-09-03T11:43:33.497Z,1009.03
2018-09-03T11:44:33.489Z,1009.01
2018-09-03T11:45:33.483Z,1009.01
2018-09-03T11:46:33.476Z,1008.99
2018-09-03T11:47:33.471Z,1008.97
2018-09-03T11:48:33.464Z,1008.94
2018-09-03T11:49:33.462Z,1008.94
2018-09-03T11:50:33.451Z,1008.99
2018-09-03T11:51:33.453Z,1008.97
2018-09-03T11:52:33.443Z,1008.96
2018-09-03T11:53:33.434Z,1008.99
2018-09-03T11:54:33.507Z,1008.94
2018-09-03T11:55:33.424Z,1008.92
2018-09-03T11:56:33.419Z,1008.94
2018-09-03T11:57:33.416Z,1008.87
2018-09-03T11:58:33.412Z,1008.85
2018-09-03T11:59:33.436Z,1008.86
2018-09-03T12:00:33.423Z,1008.81
2018-09-03T12:01:33.393Z,1008.85
2018-09-03T12:02:33.393Z,1008.83
2018-09-03T12:03:33.395Z,1008.75
2018-09-03T12:04:33.380Z,1008.72
2018-09-03T12:05:33.374Z,1008.71
2018-09-03T12:06:33.391Z,1008.72
2018-09-03T12:07:33.367Z,1008.68
2018-09-03T12:08:33.362Z,1008.69